Time;durP1;ratioP1;P1;durP2;ratioP2;P2;SDS_P1;SDS_P2;PMS_P1;PMS_P2;Temp;Humidity;BMP_temperature;BMP_pressure;BME280_temperature;BME280_humidity;BME280_pressure;Samples;Min_cycle;Max_cycle;Signal;HPM_P1;HPM_P2
2022/12/18 00:01:33;;;;;;;47.78;14.23;;;-1.50;99.90;;;;;;5062476;28;20116;-32
2022/12/18 00:03:59;;;;;;;55.38;15.25;;;-1.40;99.90;;;;;;5062460;28;20024;-36
2022/12/18 00:06:27;;;;;;;35.97;13.88;;;-1.30;99.90;;;;;;5065000;28;20039;-35
2022/12/18 00:08:53;;;;;;;43.83;14.27;;;-1.40;99.90;;;;;;5067992;28;20128;-38
2022/12/18 00:11:21;;;;;;;45.47;14.82;;;-1.50;99.90;;;;;;5068169;28;20484;-31
2022/12/18 00:13:47;;;;;;;41.13;12.77;;;-1.60;99.90;;;;;;5058292;28;20695;-36
2022/12/18 00:16:20;;;;;;;47.15;15.30;;;-1.70;99.90;;;;;;5066882;28;20028;-37
2022/12/18 00:18:46;;;;;;;58.33;21.27;;;-1.60;99.90;;;;;;5066960;28;20465;-33
2022/12/18 00:21:13;;;;;;;64.03;23.15;;;-1.60;99.90;;;;;;5070518;28;20492;-42
2022/12/18 00:23:40;;;;;;;45.65;15.70;;;-1.60;99.90;;;;;;5054592;28;20013;-34
2022/12/18 00:26:18;;;;;;;56.83;17.42;;;-1.60;99.90;;;;;;5061152;28;20044;-34
2022/12/18 00:28:45;;;;;;;46.85;14.20;;;-1.70;99.90;;;;;;5065845;28;20059;-35
2022/12/18 00:31:13;;;;;;;56.90;18.88;;;-1.80;99.90;;;;;;5058190;28;20112;-38
2022/12/18 00:33:39;;;;;;;49.78;14.68;;;-1.70;99.90;;;;;;5054062;28;20033;-43
2022/12/18 00:36:12;;;;;;;43.58;14.27;;;-1.80;99.90;;;;;;5061464;28;20073;-43
2022/12/18 00:38:38;;;;;;;55.65;14.45;;;-1.80;99.90;;;;;;5052281;28;20076;-43
2022/12/18 00:41:05;;;;;;;49.25;15.63;;;-1.70;99.90;;;;;;5063935;28;20484;-45
2022/12/18 00:43:30;;;;;;;51.03;14.32;;;-1.70;99.90;;;;;;5066664;28;20082;-41
2022/12/18 00:45:56;;;;;;;64.30;17.95;;;-1.80;99.90;;;;;;5057910;28;20103;-39
2022/12/18 00:48:22;;;;;;;62.97;17.10;;;-1.80;99.90;;;;;;5061020;28;20025;-43
2022/12/18 00:50:49;;;;;;;50.33;15.48;;;-1.80;99.90;;;;;;5054762;28;20504;-65
2022/12/18 00:53:15;;;;;;;56.33;16.35;;;-1.80;99.90;;;;;;5056138;28;20025;-43
2022/12/18 00:55:41;;;;;;;50.63;16.30;;;-1.90;99.90;;;;;;5053676;28;20032;-42
2022/12/18 00:58:08;;;;;;;62.03;16.20;;;-1.90;99.90;;;;;;5063709;28;20488;-42
2022/12/18 01:00:34;;;;;;;53.10;14.57;;;-1.90;99.90;;;;;;5068449;28;20016;-44
2022/12/18 01:02:59;;;;;;;52.20;16.00;;;-1.90;99.90;;;;;;5057930;28;20037;-41
2022/12/18 01:05:25;;;;;;;48.13;14.93;;;-1.90;99.90;;;;;;5055018;28;20480;-44
2022/12/18 01:07:51;;;;;;;54.60;14.98;;;-2.00;99.90;;;;;;5065443;28;20029;-42
2022/12/18 01:10:17;;;;;;;59.95;16.77;;;-2.00;99.90;;;;;;5063937;28;20044;-48
2022/12/18 01:12:43;;;;;;;40.15;13.05;;;-2.00;99.90;;;;;;5071970;28;20511;-44
2022/12/18 01:15:11;;;;;;;42.35;12.90;;;-2.10;99.90;;;;;;5072256;28;20025;-43
2022/12/18 01:17:37;;;;;;;;;;;-2.10;99.90;;;;;;5072517;28;20384;-42
2022/12/18 01:20:03;;;;;;;54.10;15.25;;;-2.10;99.90;;;;;;5055874;28;20007;-43
2022/12/18 01:22:28;;;;;;;50.42;14.10;;;-2.00;99.90;;;;;;5053072;28;20037;-43
2022/12/18 01:24:54;;;;;;;45.80;15.00;;;-2.00;99.90;;;;;;5066793;28;20073;-41
2022/12/18 01:27:20;;;;;;;40.38;13.55;;;-2.10;99.90;;;;;;5070933;28;20074;-39
2022/12/18 01:29:45;;;;;;;52.92;15.73;;;-2.20;99.90;;;;;;5054267;28;20021;-38
2022/12/18 01:32:11;;;;;;;44.22;13.77;;;-2.20;99.90;;;;;;5069057;28;20029;-37
2022/12/18 01:34:37;;;;;;;56.10;14.85;;;-2.20;99.90;;;;;;5054673;28;20025;-35
2022/12/18 01:37:04;;;;;;;46.65;14.73;;;-2.10;99.90;;;;;;5054173;28;20120;-32
2022/12/18 01:39:30;;;;;;;46.70;14.75;;;-2.10;99.90;;;;;;5057027;28;20035;-37
2022/12/18 01:42:01;;;;;;;47.85;14.25;;;-2.10;99.90;;;;;;5069222;28;20380;-32
2022/12/18 01:45:00;;;;;;;58.75;16.73;;;-2.20;99.90;;;;;;5072316;28;20139;-40
2022/12/18 01:47:40;;;;;;;53.55;15.27;;;-2.30;99.90;;;;;;5053801;28;20115;-33
2022/12/18 01:50:12;;;;;;;55.13;15.05;;;-2.40;99.90;;;;;;5066136;28;20021;-32
2022/12/18 01:52:40;;;;;;;47.78;15.80;;;-2.40;99.90;;;;;;5051542;28;20384;-35
2022/12/18 01:55:08;;;;;;;47.08;14.70;;;-2.50;99.90;;;;;;5056015;28;20044;-32
2022/12/18 01:57:34;;;;;;;57.65;15.85;;;-2.50;99.90;;;;;;5071161;28;20060;-33
2022/12/18 02:00:08;;;;;;;55.10;16.17;;;-2.40;99.90;;;;;;5060309;28;20029;-34
2022/12/18 02:02:34;;;;;;;44.53;15.13;;;-2.40;99.90;;;;;;5063006;28;20025;-38
2022/12/18 02:05:01;;;;;;;55.90;16.15;;;-2.40;99.90;;;;;;5070600;28;20515;-39
2022/12/18 02:07:36;;;;;;;52.00;16.67;;;-2.40;99.90;;;;;;5056669;28;20036;-37
2022/12/18 02:10:38;;;;;;;45.90;15.30;;;-2.20;99.90;;;;;;5060293;28;20049;-39
2022/12/18 02:13:14;;;;;;;54.97;17.38;;;-2.30;99.90;;;;;;5050604;28;20031;-33
2022/12/18 02:15:50;;;;;;;47.85;15.75;;;-2.30;99.90;;;;;;5061047;28;20025;-33
2022/12/18 02:18:23;;;;;;;53.08;15.13;;;-2.30;99.90;;;;;;5056262;28;20028;-33
2022/12/18 02:21:12;;;;;;;46.15;14.20;;;-2.30;99.90;;;;;;5057898;28;20111;-34
2022/12/18 02:24:08;;;;;;;38.88;13.05;;;-2.40;99.90;;;;;;5060139;28;20033;-32
2022/12/18 02:26:43;;;;;;;46.90;13.95;;;-2.40;99.90;;;;;;5056413;28;20033;-37
2022/12/18 02:29:14;;;;;;;47.38;14.57;;;-2.40;99.90;;;;;;5067580;28;20036;-35
2022/12/18 02:31:47;;;;;;;47.20;15.32;;;-2.30;99.90;;;;;;5075258;28;20040;-37
2022/12/18 02:34:14;;;;;;;47.88;14.98;;;-2.40;99.90;;;;;;5062705;28;20040;-37
2022/12/18 02:36:42;;;;;;;52.45;16.25;;;-2.40;99.90;;;;;;5072964;28;20025;-34
2022/12/18 02:39:11;;;;;;;62.13;14.75;;;-2.40;99.90;;;;;;5072589;28;20061;-37
2022/12/18 02:41:43;;;;;;;54.28;16.05;;;-2.40;99.90;;;;;;5063429;28;20485;-36
2022/12/18 02:44:12;;;;;;;45.15;15.18;;;-2.30;99.90;;;;;;5067322;28;20044;-36
2022/12/18 02:46:50;;;;;;;53.88;15.38;;;-2.30;99.90;;;;;;5066613;28;20020;-35
2022/12/18 02:49:57;;;;;;;52.38;16.00;;;-2.40;99.90;;;;;;5068393;28;20021;-35
2022/12/18 02:52:29;;;;;;;;;;;-2.40;99.90;;;;;;5073982;28;20052;-32
2022/12/18 02:55:01;;;;;;;53.15;13.20;;;-2.50;99.90;;;;;;5070135;28;20404;-33
2022/12/18 02:57:49;;;;;;;50.30;15.95;;;-2.70;99.90;;;;;;5054757;28;20033;-35
2022/12/18 03:00:43;;;;;;;45.05;14.50;;;-2.80;99.90;;;;;;5055550;28;20078;-33
2022/12/18 03:03:18;;;;;;;42.53;14.60;;;-2.80;99.90;;;;;;5054040;28;20039;-33
2022/12/18 03:06:07;;;;;;;38.05;15.00;;;-2.60;99.90;;;;;;5054536;28;20036;-41
2022/12/18 03:08:43;;;;;;;45.60;14.50;;;-2.60;99.90;;;;;;5057232;28;20047;-32
2022/12/18 03:11:11;;;;;;;42.90;12.57;;;-2.60;99.90;;;;;;5061193;28;20035;-40
2022/12/18 03:13:42;;;;;;;42.10;13.70;;;-2.60;99.90;;;;;;5073361;28;20555;-41
2022/12/18 03:16:11;;;;;;;45.40;14.65;;;-2.70;99.90;;;;;;5074769;28;20541;-56
2022/12/18 03:18:49;;;;;;;41.55;14.05;;;-2.70;99.90;;;;;;5056650;28;20057;-41
2022/12/18 03:21:20;;;;;;;47.55;14.27;;;-2.70;99.90;;;;;;5055431;28;20480;-57
2022/12/18 03:23:50;;;;;;;50.03;15.07;;;-2.80;99.90;;;;;;5064913;28;20499;-42
2022/12/18 03:26:21;;;;;;;46.35;14.68;;;-2.70;99.90;;;;;;5065927;28;20029;-42
2022/12/18 03:28:53;;;;;;;32.10;12.02;;;-2.80;99.90;;;;;;5055316;28;20086;-42
2022/12/18 03:31:22;;;;;;;45.58;13.95;;;-2.80;99.90;;;;;;5054819;28;20040;-34
2022/12/18 03:33:57;;;;;;;49.17;14.52;;;-2.80;99.90;;;;;;5060425;28;20374;-34
2022/12/18 03:36:24;;;;;;;29.67;13.32;;;-2.80;99.90;;;;;;5069535;28;20516;-31
2022/12/18 03:38:50;;;;;;;29.67;12.77;;;-2.80;99.90;;;;;;5070816;28;20438;-32
2022/12/18 03:41:40;;;;;;;41.15;15.45;;;-2.80;99.90;;;;;;5070125;28;20028;-35
2022/12/18 03:44:13;;;;;;;38.83;12.70;;;-2.80;99.90;;;;;;5055436;28;20029;-34
2022/12/18 03:47:01;;;;;;;42.08;14.07;;;-2.90;99.90;;;;;;5055034;28;20021;-32
2022/12/18 03:49:35;;;;;;;38.78;13.93;;;-2.80;99.90;;;;;;5054023;28;20033;-41
2022/12/18 03:52:11;;;;;;;33.50;12.05;;;-2.90;99.90;;;;;;5054347;28;20366;-31
2022/12/18 03:54:38;;;;;;;44.95;13.20;;;-2.90;99.90;;;;;;5054682;28;20052;-33
2022/12/18 03:57:13;;;;;;;41.08;13.48;;;-2.90;99.90;;;;;;5054303;28;20513;-36
2022/12/18 03:59:40;;;;;;;41.42;14.15;;;-2.90;99.90;;;;;;5058654;28;20059;-41
2022/12/18 04:02:08;;;;;;;43.38;14.13;;;-2.80;99.90;;;;;;5074570;28;20024;-39
2022/12/18 04:04:37;;;;;;;39.88;12.90;;;-2.80;99.90;;;;;;5052579;28;20033;-41
2022/12/18 04:07:06;;;;;;;41.33;13.15;;;-2.90;99.90;;;;;;5062897;28;20481;-43
2022/12/18 04:09:35;;;;;;;31.23;13.27;;;-2.80;99.90;;;;;;5056776;28;20532;-36
2022/12/18 04:12:00;;;;;;;30.92;12.13;;;-2.80;99.90;;;;;;5059732;28;20033;-35
2022/12/18 04:14:26;;;;;;;36.80;12.25;;;-2.80;99.90;;;;;;5059861;28;20028;-31
2022/12/18 04:16:52;;;;;;;42.65;14.63;;;-2.80;99.90;;;;;;5066602;28;20033;-32
2022/12/18 04:19:17;;;;;;;44.78;14.63;;;-2.90;99.90;;;;;;5068536;28;20378;-40
2022/12/18 04:21:43;;;;;;;42.25;14.20;;;-2.90;99.90;;;;;;5055652;28;20029;-44
2022/12/18 04:24:09;;;;;;;39.92;13.82;;;-2.90;99.90;;;;;;5065174;28;20481;-38
2022/12/18 04:26:34;;;;;;;35.00;13.10;;;-3.00;99.90;;;;;;5057507;28;20029;-34
2022/12/18 04:29:00;;;;;;;35.92;15.05;;;-3.00;99.90;;;;;;5054055;28;20047;-40
2022/12/18 04:31:26;;;;;;;36.47;13.23;;;-3.00;99.90;;;;;;5070642;28;20040;-41
2022/12/18 04:33:52;;;;;;;36.78;14.48;;;-3.00;99.90;;;;;;5054463;28;20432;-42
2022/12/18 04:36:18;;;;;;;34.80;13.98;;;-3.00;99.90;;;;;;5053664;28;20021;-41
2022/12/18 04:39:02;;;;;;;44.58;13.45;;;-3.00;99.90;;;;;;5066234;28;20039;-42
2022/12/18 04:41:28;;;;;;;41.58;13.65;;;-3.00;99.90;;;;;;5067745;28;20037;-41
2022/12/18 04:43:53;;;;;;;34.45;12.05;;;-3.00;99.90;;;;;;5052737;28;20499;-39
2022/12/18 04:46:19;;;;;;;36.78;11.40;;;-3.10;99.90;;;;;;5053530;28;20469;-45
2022/12/18 04:48:46;;;;;;;40.38;12.18;;;-3.20;99.90;;;;;;5053825;28;20104;-34
2022/12/18 04:51:12;;;;;;;42.97;13.25;;;-3.20;99.90;;;;;;5058027;28;21209;-32
2022/12/18 04:53:37;;;;;;;23.90;12.23;;;-3.20;99.90;;;;;;5064677;28;20090;-34
2022/12/18 04:56:04;;;;;;;29.95;12.65;;;-3.20;99.90;;;;;;5069868;28;20031;-32
2022/12/18 04:58:30;;;;;;;34.05;12.02;;;-3.20;99.90;;;;;;5051603;28;20564;-34
2022/12/18 05:00:55;;;;;;;33.75;12.20;;;-3.30;99.90;;;;;;5053340;28;20135;-34
2022/12/18 05:03:21;;;;;;;31.38;12.40;;;-3.40;99.90;;;;;;5053242;28;20112;-37
2022/12/18 05:05:50;;;;;;;32.83;12.05;;;-3.40;99.90;;;;;;5053055;28;20079;-36
2022/12/18 05:08:16;;;;;;;38.10;10.98;;;-3.40;99.90;;;;;;5060434;28;20037;-35
2022/12/18 05:10:42;;;;;;;40.83;13.10;;;-3.40;99.90;;;;;;5073231;28;20035;-34
2022/12/18 05:13:07;;;;;;;30.85;12.57;;;-3.40;99.90;;;;;;5054518;28;20025;-32
2022/12/18 05:15:33;;;;;;;29.25;11.85;;;-3.40;99.90;;;;;;5053097;28;20036;-32
2022/12/18 05:18:00;;;;;;;36.10;11.90;;;-3.40;99.90;;;;;;5052629;28;20024;-36
2022/12/18 05:20:27;;;;;;;22.15;9.20;;;-3.40;99.90;;;;;;5056162;28;20024;-36
2022/12/18 05:22:53;;;;;;;26.85;10.23;;;-3.50;99.90;;;;;;5059876;28;20028;-34
2022/12/18 05:25:20;;;;;;;23.65;11.05;;;-3.50;99.90;;;;;;5066273;28;20498;-42
2022/12/18 05:27:46;;;;;;;28.02;10.75;;;-3.50;99.90;;;;;;5052954;28;20112;-41
2022/12/18 05:30:13;;;;;;;29.23;11.27;;;-3.40;99.90;;;;;;5052534;28;20056;-41
2022/12/18 05:32:39;;;;;;;23.02;9.23;;;-3.40;99.90;;;;;;5053996;28;20545;-43
2022/12/18 05:35:06;;;;;;;21.80;9.05;;;-3.40;99.90;;;;;;5052134;28;20032;-46
2022/12/18 05:37:32;;;;;;;27.65;8.95;;;-3.30;99.90;;;;;;5058715;28;20040;-35
2022/12/18 05:39:58;;;;;;;25.55;9.68;;;-3.30;99.90;;;;;;5063876;28;20029;-34
2022/12/18 05:42:24;;;;;;;25.38;9.45;;;-3.30;99.90;;;;;;5065621;28;20052;-34
2022/12/18 05:44:49;;;;;;;23.88;9.50;;;-3.30;99.90;;;;;;5064826;28;20100;-35
2022/12/18 05:47:15;;;;;;;20.08;8.75;;;-3.30;99.90;;;;;;5057644;28;20029;-36
2022/12/18 05:49:40;;;;;;;19.08;7.18;;;-3.30;99.90;;;;;;5066614;28;20519;-33
2022/12/18 05:52:06;;;;;;;14.40;7.47;;;-3.30;99.90;;;;;;5053760;28;20025;-34
2022/12/18 05:54:32;;;;;;;23.48;8.73;;;-3.30;99.90;;;;;;5065815;28;20033;-34
2022/12/18 05:56:58;;;;;;;25.48;8.02;;;-3.30;99.90;;;;;;5054349;28;20507;-34
2022/12/18 05:59:26;;;;;;;22.63;7.47;;;-3.20;99.90;;;;;;5069421;28;20109;-36
2022/12/18 06:01:52;;;;;;;18.95;7.78;;;-3.30;99.90;;;;;;5062123;28;20503;-31
2022/12/18 06:04:17;;;;;;;21.73;9.15;;;-3.30;99.90;;;;;;5068830;28;20033;-33
2022/12/18 06:06:43;;;;;;;30.52;8.20;;;-3.40;99.90;;;;;;5064849;28;20362;-36
2022/12/18 06:09:09;;;;;;;20.65;7.57;;;-3.40;99.90;;;;;;5060476;28;20129;-31
2022/12/18 06:11:36;;;;;;;16.75;7.93;;;-3.40;99.90;;;;;;5051179;28;20106;-36
2022/12/18 06:14:03;;;;;;;14.63;7.28;;;-3.40;99.90;;;;;;5062525;28;20468;-30
2022/12/18 06:16:30;;;;;;;24.02;7.57;;;-3.40;99.90;;;;;;5065908;28;20032;-33
2022/12/18 06:18:59;;;;;;;21.55;7.93;;;-3.40;99.90;;;;;;5054785;28;20444;-35
2022/12/18 06:21:25;;;;;;;22.50;8.50;;;-3.50;99.90;;;;;;5057544;28;20040;-35
2022/12/18 06:23:51;;;;;;;20.17;7.53;;;-3.50;99.90;;;;;;5059283;28;20074;-35
2022/12/18 06:26:17;;;;;;;19.10;7.28;;;-3.50;99.90;;;;;;5057718;28;20481;-32
2022/12/18 06:28:42;;;;;;;15.65;6.88;;;-3.50;99.90;;;;;;5068405;28;20107;-35
2022/12/18 06:31:09;;;;;;;16.10;7.57;;;-3.50;99.90;;;;;;5068898;28;20028;-40
2022/12/18 06:33:34;;;;;;;22.23;8.13;;;-3.40;99.90;;;;;;5057657;28;20497;-40
2022/12/18 06:36:06;;;;;;;21.88;7.95;;;-3.40;99.90;;;;;;5064189;28;20036;-40
2022/12/18 06:38:33;;;;;;;16.40;7.15;;;-3.30;99.90;;;;;;5069636;28;20385;-40
2022/12/18 06:40:59;;;;;;;19.73;7.80;;;-3.30;99.90;;;;;;5058609;28;20024;-41
2022/12/18 06:43:24;;;;;;;13.82;6.85;;;-3.30;99.90;;;;;;5062439;28;20029;-38
2022/12/18 06:45:52;;;;;;;16.30;6.88;;;-3.30;99.90;;;;;;5068352;28;20032;-40
2022/12/18 06:48:21;;;;;;;19.88;7.35;;;-3.30;99.90;;;;;;5066177;28;20036;-41
2022/12/18 06:50:47;;;;;;;17.35;7.32;;;-3.30;99.90;;;;;;5068884;28;20514;-41
2022/12/18 06:53:12;;;;;;;14.30;6.95;;;-3.30;99.90;;;;;;5075810;28;20037;-39
2022/12/18 06:55:38;;;;;;;15.90;7.30;;;-3.30;99.90;;;;;;5060738;28;20032;-40
2022/12/18 06:58:04;;;;;;;15.93;7.28;;;-3.30;99.90;;;;;;5055862;28;20064;-40
2022/12/18 07:00:29;;;;;;;17.42;7.05;;;-3.30;99.90;;;;;;5065226;28;20032;-41
2022/12/18 07:02:55;;;;;;;18.48;6.82;;;-3.30;99.90;;;;;;5075744;28;20178;-33
2022/12/18 07:05:20;;;;;;;13.55;6.85;;;-3.30;99.90;;;;;;5064220;28;20036;-35
2022/12/18 07:07:46;;;;;;;20.95;7.32;;;-3.30;99.90;;;;;;5058349;28;20029;-31
2022/12/18 07:10:11;;;;;;;16.25;6.90;;;-3.30;99.90;;;;;;5054575;28;20129;-33
2022/12/18 07:12:37;;;;;;;20.30;6.68;;;-3.30;99.90;;;;;;5057857;28;20473;-40
2022/12/18 07:15:03;;;;;;;14.43;6.43;;;-3.30;99.90;;;;;;5055525;28;20029;-40
2022/12/18 07:17:29;;;;;;;12.88;7.20;;;-3.40;99.90;;;;;;5055523;28;20039;-40
2022/12/18 07:19:55;;;;;;;16.92;7.03;;;-3.30;99.90;;;;;;5055010;28;20459;-39
2022/12/18 07:22:20;;;;;;;16.02;7.13;;;-3.30;99.90;;;;;;5053855;28;20035;-40
2022/12/18 07:24:46;;;;;;;16.90;6.15;;;-3.30;99.90;;;;;;5064560;28;20024;-40
2022/12/18 07:27:11;;;;;;;24.65;7.38;;;-3.30;99.90;;;;;;5075220;28;20037;-40
2022/12/18 07:29:37;;;;;;;18.50;7.88;;;-3.30;99.90;;;;;;5071095;28;20021;-40
2022/12/18 07:32:03;;;;;;;12.10;6.30;;;-3.30;99.90;;;;;;5055282;28;20057;-41
2022/12/18 07:34:28;;;;;;;14.90;7.13;;;-3.20;99.90;;;;;;5055082;28;20404;-41
2022/12/18 07:36:54;;;;;;;15.73;6.85;;;-3.20;99.90;;;;;;5054935;28;20107;-34
2022/12/18 07:39:20;;;;;;;18.52;7.47;;;-3.20;99.90;;;;;;5054472;28;20028;-31
2022/12/18 07:42:30;;;;;;;25.40;7.43;;;-3.20;99.90;;;;;;5069179;28;20271;-31
2022/12/18 07:44:31;;;;;;;16.13;6.13;;;-3.20;99.90;;;;;;5065776;28;20037;-31
2022/12/18 07:46:56;;;;;;;13.77;6.80;;;-3.20;99.90;;;;;;5054855;28;20370;-32
2022/12/18 07:49:22;;;;;;;18.80;6.88;;;-3.30;99.90;;;;;;5062278;28;20029;-37
2022/12/18 07:51:48;;;;;;;14.25;7.38;;;-3.30;99.90;;;;;;5054436;28;20476;-33
2022/12/18 07:54:15;;;;;;;18.05;6.90;;;-3.30;99.90;;;;;;5054196;28;20036;-32
2022/12/18 07:56:41;;;;;;;15.85;6.68;;;-3.30;99.90;;;;;;5071507;28;20047;-37
2022/12/18 07:59:07;;;;;;;13.88;7.40;;;-3.20;99.90;;;;;;5069487;28;20473;-30
2022/12/18 08:01:34;;;;;;;16.70;7.22;;;-3.20;99.90;;;;;;5056941;28;20528;-33
2022/12/18 08:03:59;;;;;;;23.38;7.50;;;-3.20;99.90;;;;;;5069293;28;20056;-33
2022/12/18 08:06:25;;;;;;;18.55;7.53;;;-3.10;99.90;;;;;;5072757;28;20060;-31
2022/12/18 08:08:55;;;;;;;17.63;7.40;;;-3.20;99.90;;;;;;5052584;28;20108;-33
2022/12/18 08:11:22;;;;;;;19.50;8.45;;;-3.20;99.90;;;;;;5066380;28;20044;-30
2022/12/18 08:13:47;;;;;;;19.67;7.18;;;-3.20;99.90;;;;;;5074339;28;20142;-37
2022/12/18 08:16:13;;;;;;;15.02;7.47;;;-3.10;99.90;;;;;;5073279;28;20051;-32
2022/12/18 08:18:39;;;;;;;19.58;6.57;;;-3.10;99.90;;;;;;5058663;28;20017;-31
2022/12/18 08:21:12;;;;;;;13.65;7.38;;;-3.10;99.90;;;;;;5054093;28;20040;-33
2022/12/18 08:23:39;;;;;;;14.68;6.70;;;-3.10;99.90;;;;;;5068854;28;20499;-35
2022/12/18 08:26:05;;;;;;;17.88;6.97;;;-3.10;99.90;;;;;;5062152;28;20481;-33
2022/12/18 08:28:31;;;;;;;19.50;7.55;;;-3.10;99.90;;;;;;5053984;28;20082;-32
2022/12/18 08:30:56;;;;;;;20.92;7.88;;;-3.00;99.90;;;;;;5053868;28;20025;-31
2022/12/18 08:33:22;;;;;;;20.10;6.70;;;-3.00;99.90;;;;;;5070719;28;20480;-40
2022/12/18 08:35:48;;;;;;;23.13;7.80;;;-3.00;99.90;;;;;;5054059;28;20029;-31
2022/12/18 08:38:13;;;;;;;16.00;6.80;;;-3.00;99.90;;;;;;5053800;28;20025;-34
2022/12/18 08:40:39;;;;;;;16.67;6.53;;;-2.90;99.90;;;;;;5053278;28;20070;-38
2022/12/18 08:45:49;;;;;;;16.90;7.18;;;-2.80;99.90;;;;;;5053909;28;20032;-35
2022/12/18 08:48:14;;;;;;;15.07;7.40;;;-2.70;99.90;;;;;;5054084;28;20025;-32
2022/12/18 08:50:40;;;;;;;17.27;7.32;;;-2.70;99.90;;;;;;5053172;28;20064;-45
2022/12/18 08:53:06;;;;;;;17.33;6.70;;;-2.70;99.90;;;;;;5052792;28;20546;-34
2022/12/18 08:55:32;;;;;;;13.57;6.72;;;-2.70;99.90;;;;;;5051390;28;20048;-33
2022/12/18 08:57:57;;;;;;;16.40;7.63;;;-2.70;99.90;;;;;;5054584;28;20472;-32
2022/12/18 09:00:23;;;;;;;16.10;7.18;;;-2.70;99.90;;;;;;5056709;28;20028;-37
2022/12/18 09:02:48;;;;;;;19.92;6.10;;;-2.70;99.90;;;;;;5071914;28;20040;-34
2022/12/18 09:05:14;;;;;;;18.77;7.22;;;-2.70;99.90;;;;;;5070655;28;20024;-36
2022/12/18 09:07:40;;;;;;;18.00;8.60;;;-2.60;99.90;;;;;;5053326;28;20032;-30
2022/12/18 09:10:06;;;;;;;19.20;7.25;;;-2.60;99.90;;;;;;5052388;28;20076;-38
2022/12/18 09:12:31;;;;;;;21.63;8.30;;;-2.60;99.90;;;;;;5059880;28;20046;-37
2022/12/18 09:14:57;;;;;;;16.15;7.28;;;-2.60;99.90;;;;;;5057700;28;20444;-31
2022/12/18 09:17:23;;;;;;;15.80;6.97;;;-2.50;99.90;;;;;;5054118;28;20025;-34
2022/12/18 09:19:49;;;;;;;13.80;7.22;;;-2.40;99.90;;;;;;5052586;28;20032;-33
2022/12/18 09:22:14;;;;;;;15.27;7.35;;;-2.40;99.90;;;;;;5054274;28;20085;-34
2022/12/18 09:24:40;;;;;;;18.75;6.65;;;-2.30;99.90;;;;;;5060737;28;20035;-38
2022/12/18 09:27:06;;;;;;;15.25;6.57;;;-2.20;99.90;;;;;;5067084;28;20101;-31
2022/12/18 09:29:32;;;;;;;18.13;7.25;;;-2.20;99.90;;;;;;5067693;28;20029;-40
2022/12/18 09:31:58;;;;;;;16.83;7.00;;;-2.10;99.90;;;;;;5053115;28;20033;-41
2022/12/18 09:34:24;;;;;;;15.10;7.75;;;-2.00;99.90;;;;;;5052643;28;20374;-62
2022/12/18 09:36:50;;;;;;;13.77;6.35;;;-2.00;99.90;;;;;;5053147;28;20020;-41
2022/12/18 09:39:15;;;;;;;12.60;6.15;;;-1.90;99.90;;;;;;5053052;28;20066;-39
2022/12/18 09:41:54;;;;;;;21.27;6.30;;;-1.90;99.90;;;;;;5053498;28;20543;-39
2022/12/18 09:44:45;;;;;;;15.40;6.63;;;-1.90;99.90;;;;;;5052834;28;20029;-41
2022/12/18 09:47:19;;;;;;;20.42;7.20;;;-1.90;99.90;;;;;;5055171;28;20028;-36
2022/12/18 09:49:49;;;;;;;18.40;7.35;;;-1.90;99.90;;;;;;5070978;28;20473;-37
2022/12/18 09:52:35;;;;;;;14.57;7.47;;;-1.90;99.90;;;;;;5063860;28;20116;-39
2022/12/18 09:55:10;;;;;;;15.05;6.72;;;-1.80;99.90;;;;;;5071672;28;20025;-59
2022/12/18 09:57:41;;;;;;;14.57;7.22;;;-1.70;99.90;;;;;;5061632;28;20031;-41
2022/12/18 10:00:20;;;;;;;21.13;7.00;;;-1.70;99.90;;;;;;5056756;28;20104;-54
2022/12/18 10:02:47;;;;;;;14.75;6.65;;;-1.60;99.90;;;;;;5054947;28;20135;-35
2022/12/18 10:05:14;;;;;;;16.85;7.15;;;-1.50;99.90;;;;;;5063372;28;20029;-41
2022/12/18 10:08:13;;;;;;;18.88;6.78;;;-1.40;99.90;;;;;;5056457;28;20032;-42
2022/12/18 10:10:51;;;;;;;14.95;6.78;;;-1.30;99.90;;;;;;5050605;28;20033;-37
2022/12/18 10:13:29;;;;;;;;;;;-1.30;99.90;;;;;;5063957;28;20113;-38
2022/12/18 10:16:16;;;;;;;16.45;7.10;;;-1.20;99.90;;;;;;5066193;28;19908;-40
2022/12/18 10:19:23;;;;;;;25.60;9.73;;;-1.20;99.90;;;;;;5064086;28;20048;-41
2022/12/18 10:22:10;;;;;;;21.33;7.97;;;-1.20;99.90;;;;;;5056598;28;20161;-49
2022/12/18 10:24:54;;;;;;;19.30;8.30;;;-1.10;99.90;;;;;;5056187;28;20389;-39
2022/12/18 10:27:25;;;;;;;18.23;7.38;;;-1.10;99.90;;;;;;5064116;28;20067;-41
2022/12/18 10:29:50;;;;;;;30.67;13.00;;;-1.00;99.90;;;;;;5068278;28;20028;-38
2022/12/18 10:32:20;;;;;;;20.55;7.43;;;-1.00;99.90;;;;;;5056916;28;20387;-37
2022/12/18 10:34:49;;;;;;;18.02;7.63;;;-1.00;99.90;;;;;;5067532;28;20013;-31
2022/12/18 10:37:21;;;;;;;11.38;5.85;;;-1.00;99.90;;;;;;5066169;28;20096;-35
2022/12/18 10:40:09;;;;;;;17.50;6.90;;;-0.90;99.90;;;;;;5063466;28;20384;-34
2022/12/18 10:42:34;;;;;;;15.52;6.72;;;-0.90;99.90;;;;;;5065623;28;20029;-35
2022/12/18 10:45:05;;;;;;;17.88;7.38;;;-0.90;99.90;;;;;;5063181;28;20021;-33
2022/12/18 10:47:33;;;;;;;19.10;8.13;;;-0.80;99.90;;;;;;5055930;28;20029;-32
2022/12/18 10:49:59;;;;;;;22.23;8.07;;;-0.80;99.90;;;;;;5073125;28;20066;-36
2022/12/18 10:52:26;;;;;;;34.67;14.57;;;-0.80;99.90;;;;;;5067813;28;20082;-31
2022/12/18 10:54:53;;;;;;;15.48;7.25;;;-0.70;99.90;;;;;;5054162;28;20564;-30
2022/12/18 10:57:40;;;;;;;21.20;8.20;;;-0.70;99.90;;;;;;5068981;28;20055;-35
2022/12/18 11:00:25;;;;;;;18.08;8.20;;;-0.60;99.90;;;;;;5072509;28;20025;-33
2022/12/18 11:02:50;;;;;;;12.60;6.75;;;-0.60;99.90;;;;;;5070596;28;20040;-36
2022/12/18 11:05:27;;;;;;;17.75;8.13;;;-0.50;99.90;;;;;;5057753;28;20020;-36
2022/12/18 11:07:56;;;;;;;17.00;8.07;;;-0.50;99.90;;;;;;5057030;28;20040;-41
2022/12/18 11:10:33;;;;;;;19.73;7.95;;;-0.50;99.90;;;;;;5068356;28;20041;-36
2022/12/18 11:13:18;;;;;;;19.83;7.80;;;-0.40;99.90;;;;;;5054033;28;20603;-33
2022/12/18 11:15:44;;;;;;;17.23;7.20;;;-0.30;99.90;;;;;;5057521;28;20115;-39
2022/12/18 11:18:26;;;;;;;15.18;6.25;;;-0.30;99.90;;;;;;5055151;28;20438;-34
2022/12/18 11:21:07;;;;;;;13.25;6.00;;;-0.20;99.90;;;;;;5062906;28;20025;-31
2022/12/18 11:23:53;;;;;;;17.20;6.50;;;-0.20;99.90;;;;;;5061425;28;20028;-32
2022/12/18 11:26:19;;;;;;;14.60;7.03;;;-0.20;99.90;;;;;;5068642;28;20029;-31
2022/12/18 11:29:06;;;;;;;17.17;7.57;;;-0.10;99.90;;;;;;5058225;28;20032;-33
2022/12/18 11:31:35;;;;;;;18.27;6.70;;;-0.10;99.90;;;;;;5066038;28;20481;-31
2022/12/18 11:34:17;;;;;;;15.57;7.50;;;0.00;99.90;;;;;;5071659;28;20079;-33
2022/12/18 11:36:45;;;;;;;23.10;7.65;;;0.00;99.90;;;;;;5059033;28;20563;-35
2022/12/18 11:39:36;;;;;;;18.15;7.40;;;0.10;99.90;;;;;;5061974;28;20486;-31
2022/12/18 11:42:27;;;;;;;15.57;6.47;;;0.10;99.90;;;;;;5057547;28;20045;-31
2022/12/18 11:45:11;;;;;;;17.25;7.18;;;0.20;99.90;;;;;;5058463;28;20060;-34
2022/12/18 11:47:52;;;;;;;13.60;6.28;;;0.20;99.90;;;;;;5074676;28;20074;-41
2022/12/18 11:50:28;;;;;;;18.00;8.65;;;0.20;99.90;;;;;;5061309;28;20166;-43
2022/12/18 11:52:54;;;;;;;20.95;7.88;;;0.20;99.90;;;;;;5073880;28;20032;-45
2022/12/18 11:55:44;;;;;;;18.85;8.50;;;0.30;99.90;;;;;;5070566;28;20029;-34
2022/12/18 11:58:42;;;;;;;21.20;8.75;;;0.30;99.90;;;;;;5060782;28;20031;-32
2022/12/18 12:01:46;;;;;;;16.08;8.23;;;0.20;99.90;;;;;;5062718;28;20103;-47
2022/12/18 12:04:22;;;;;;;18.30;8.85;;;0.30;99.90;;;;;;5058018;28;20045;-36
2022/12/18 12:07:16;;;;;;;18.38;8.90;;;0.30;99.90;;;;;;5068653;28;20537;-34
2022/12/18 12:10:25;;;;;;;18.13;9.07;;;0.30;99.90;;;;;;5061617;28;20432;-37
2022/12/18 12:13:35;;;;;;;18.17;7.72;;;0.30;99.90;;;;;;5058999;28;20088;-41
2022/12/18 12:16:10;;;;;;;18.17;7.75;;;0.40;99.90;;;;;;5059260;28;20404;-42
2022/12/18 12:18:54;;;;;;;15.60;7.38;;;0.40;99.90;;;;;;5055713;28;20439;-42
2022/12/18 12:21:32;;;;;;;31.77;7.53;;;0.50;99.90;;;;;;5056202;28;20024;-33
2022/12/18 12:24:23;;;;;;;21.30;7.57;;;0.60;99.90;;;;;;5063494;28;20054;-44
2022/12/18 12:27:25;;;;;;;14.90;5.80;;;0.60;99.90;;;;;;5067218;28;20081;-46
2022/12/18 12:30:07;;;;;;;14.32;6.97;;;0.60;99.90;;;;;;5062765;28;20481;-38
2022/12/18 12:33:00;;;;;;;17.63;7.75;;;0.60;99.90;;;;;;5062398;28;20031;-33
2022/12/18 12:35:52;;;;;;;15.70;6.60;;;0.50;99.90;;;;;;5067120;28;20369;-34
2022/12/18 12:38:25;;;;;;;14.70;6.22;;;0.60;99.90;;;;;;5066611;28;20556;-35
2022/12/18 12:41:03;;;;;;;15.13;6.97;;;0.60;99.90;;;;;;5070865;28;20078;-33
2022/12/18 12:43:32;;;;;;;16.58;6.22;;;0.60;99.90;;;;;;5073628;28;20388;-43
2022/12/18 12:46:03;;;;;;;19.17;7.68;;;0.70;99.90;;;;;;5073739;28;20229;-42
2022/12/18 12:48:44;;;;;;;18.02;7.80;;;0.70;99.90;;;;;;5057582;28;20025;-42
2022/12/18 12:51:23;;;;;;;19.17;6.72;;;0.70;99.90;;;;;;5064368;28;20116;-41
2022/12/18 12:53:49;;;;;;;12.70;6.20;;;0.60;99.90;;;;;;5057375;28;20069;-42
2022/12/18 12:56:19;;;;;;;14.63;6.72;;;0.60;99.90;;;;;;5053807;28;20021;-43
2022/12/18 12:58:59;;;;;;;17.65;6.93;;;0.60;99.90;;;;;;5057319;28;20020;-43